sensor_id;sensor_type;location;lat;lon;timestamp;temperature;humidity
42085;DHT22;27746;52.228;20.890;2024-02-16T00:00:04;7.40;99.90
42085;DHT22;27746;52.228;20.890;2024-02-16T00:02:30;7.50;99.90
42085;DHT22;27746;52.228;20.890;2024-02-16T00:04:59;7.50;99.90
42085;DHT22;27746;52.228;20.890;2024-02-16T00:07:26;7.50;99.90
42085;DHT22;27746;52.228;20.890;2024-02-16T00:09:53;7.50;99.90
42085;DHT22;27746;52.228;20.890;2024-02-16T00:12:20;7.50;99.90
42085;DHT22;27746;52.228;20.890;2024-02-16T00:14:47;7.50;99.90
42085;DHT22;27746;52.228;20.890;2024-02-16T00:17:13;7.50;99.90
42085;DHT22;27746;52.228;20.890;2024-02-16T00:19:40;7.50;99.90
42085;DHT22;27746;52.228;20.890;2024-02-16T00:22:09;7.50;99.90
42085;DHT22;27746;52.228;20.890;2024-02-16T00:24:36;7.50;99.90
42085;DHT22;27746;52.228;20.890;2024-02-16T00:27:03;7.50;99.90
42085;DHT22;27746;52.228;20.890;2024-02-16T00:29:31;7.50;99.90
42085;DHT22;27746;52.228;20.890;2024-02-16T00:31:58;7.40;99.90
42085;DHT22;27746;52.228;20.890;2024-02-16T00:34:25;7.50;99.90
42085;DHT22;27746;52.228;20.890;2024-02-16T00:36:52;7.50;99.90
42085;DHT22;27746;52.228;20.890;2024-02-16T00:39:20;7.40;99.90
42085;DHT22;27746;52.228;20.890;2024-02-16T00:41:47;7.50;99.90
42085;DHT22;27746;52.228;20.890;2024-02-16T00:44:14;7.50;99.90
42085;DHT22;27746;52.228;20.890;2024-02-16T00:46:41;7.40;99.90
42085;DHT22;27746;52.228;20.890;2024-02-16T00:49:08;7.40;99.90
42085;DHT22;27746;52.228;20.890;2024-02-16T00:51:35;7.40;99.90
42085;DHT22;27746;52.228;20.890;2024-02-16T00:54:02;7.40;99.90
42085;DHT22;27746;52.228;20.890;2024-02-16T00:56:32;7.30;99.90
42085;DHT22;27746;52.228;20.890;2024-02-16T00:58:58;7.30;99.90
42085;DHT22;27746;52.228;20.890;2024-02-16T01:01:25;7.30;99.90
42085;DHT22;27746;52.228;20.890;2024-02-16T01:03:52;7.30;99.90
42085;DHT22;27746;52.228;20.890;2024-02-16T01:06:20;7.30;99.90
42085;DHT22;27746;52.228;20.890;2024-02-16T01:08:46;7.30;99.90
42085;DHT22;27746;52.228;20.890;2024-02-16T01:11:13;7.30;99.90
42085;DHT22;27746;52.228;20.890;2024-02-16T01:13:41;7.20;99.90
42085;DHT22;27746;52.228;20.890;2024-02-16T01:16:09;7.20;99.90
42085;DHT22;27746;52.228;20.890;2024-02-16T01:18:36;7.20;99.90
42085;DHT22;27746;52.228;20.890;2024-02-16T01:21:04;7.10;99.90
42085;DHT22;27746;52.228;20.890;2024-02-16T01:23:30;7.10;99.90
42085;DHT22;27746;52.228;20.890;2024-02-16T01:25:58;7.10;99.90
42085;DHT22;27746;52.228;20.890;2024-02-16T01:28:24;7.00;99.90
42085;DHT22;27746;52.228;20.890;2024-02-16T01:30:53;7.00;99.90
42085;DHT22;27746;52.228;20.890;2024-02-16T01:33:22;6.90;99.90
42085;DHT22;27746;52.228;20.890;2024-02-16T01:35:48;6.90;99.90
42085;DHT22;27746;52.228;20.890;2024-02-16T01:38:15;6.90;99.90
42085;DHT22;27746;52.228;20.890;2024-02-16T01:40:42;6.90;99.90
42085;DHT22;27746;52.228;20.890;2024-02-16T01:43:09;6.90;99.90
42085;DHT22;27746;52.228;20.890;2024-02-16T01:45:36;6.90;99.90
42085;DHT22;27746;52.228;20.890;2024-02-16T01:48:05;6.80;99.90
42085;DHT22;27746;52.228;20.890;2024-02-16T01:50:32;6.80;99.90
42085;DHT22;27746;52.228;20.890;2024-02-16T01:52:59;6.80;99.90
42085;DHT22;27746;52.228;20.890;2024-02-16T01:55:26;6.80;99.90
42085;DHT22;27746;52.228;20.890;2024-02-16T01:57:52;6.80;99.90
42085;DHT22;27746;52.228;20.890;2024-02-16T02:00:19;6.70;99.90
42085;DHT22;27746;52.228;20.890;2024-02-16T02:02:46;6.70;99.90
42085;DHT22;27746;52.228;20.890;2024-02-16T02:05:15;6.70;99.90
42085;DHT22;27746;52.228;20.890;2024-02-16T02:07:41;6.60;99.90
42085;DHT22;27746;52.228;20.890;2024-02-16T02:10:09;6.60;99.90
42085;DHT22;27746;52.228;20.890;2024-02-16T02:12:38;6.60;99.90
42085;DHT22;27746;52.228;20.890;2024-02-16T02:15:05;6.60;99.90
42085;DHT22;27746;52.228;20.890;2024-02-16T02:17:32;6.60;99.90
42085;DHT22;27746;52.228;20.890;2024-02-16T02:20:00;6.50;99.90
42085;DHT22;27746;52.228;20.890;2024-02-16T02:22:28;6.50;99.90
42085;DHT22;27746;52.228;20.890;2024-02-16T02:24:55;6.50;99.90
42085;DHT22;27746;52.228;20.890;2024-02-16T02:27:22;6.50;99.90
42085;DHT22;27746;52.228;20.890;2024-02-16T02:29:48;6.40;99.90
42085;DHT22;27746;52.228;20.890;2024-02-16T02:32:16;6.40;99.90
42085;DHT22;27746;52.228;20.890;2024-02-16T02:34:43;6.40;99.90
42085;DHT22;27746;52.228;20.890;2024-02-16T02:37:10;6.40;99.90
42085;DHT22;27746;52.228;20.890;2024-02-16T02:39:39;6.40;99.90
42085;DHT22;27746;52.228;20.890;2024-02-16T02:42:06;6.30;99.90
42085;DHT22;27746;52.228;20.890;2024-02-16T02:44:33;6.30;99.90
42085;DHT22;27746;52.228;20.890;2024-02-16T02:47:00;6.20;99.90
42085;DHT22;27746;52.228;20.890;2024-02-16T02:49:33;6.20;99.90
42085;DHT22;27746;52.228;20.890;2024-02-16T02:52:00;6.20;99.90
42085;DHT22;27746;52.228;20.890;2024-02-16T02:54:27;6.20;99.90
42085;DHT22;27746;52.228;20.890;2024-02-16T02:56:56;6.20;99.90
42085;DHT22;27746;52.228;20.890;2024-02-16T02:59:22;6.20;99.90
42085;DHT22;27746;52.228;20.890;2024-02-16T03:01:49;6.10;99.90
42085;DHT22;27746;52.228;20.890;2024-02-16T03:04:16;6.10;99.90
42085;DHT22;27746;52.228;20.890;2024-02-16T03:06:43;6.10;99.90
42085;DHT22;27746;52.228;20.890;2024-02-16T03:09:11;6.10;99.90
42085;DHT22;27746;52.228;20.890;2024-02-16T03:11:38;6.00;99.90
42085;DHT22;27746;52.228;20.890;2024-02-16T03:14:06;6.10;99.90
42085;DHT22;27746;52.228;20.890;2024-02-16T03:16:33;6.00;99.90
42085;DHT22;27746;52.228;20.890;2024-02-16T03:19:00;6.00;99.90
42085;DHT22;27746;52.228;20.890;2024-02-16T03:21:27;6.00;99.90
42085;DHT22;27746;52.228;20.890;2024-02-16T03:23:54;6.00;99.90
42085;DHT22;27746;52.228;20.890;2024-02-16T03:26:21;6.00;99.90
42085;DHT22;27746;52.228;20.890;2024-02-16T03:28:48;5.90;99.90
42085;DHT22;27746;52.228;20.890;2024-02-16T03:31:18;5.90;99.90
42085;DHT22;27746;52.228;20.890;2024-02-16T03:33:45;5.90;99.90
42085;DHT22;27746;52.228;20.890;2024-02-16T03:36:13;5.90;99.90
42085;DHT22;27746;52.228;20.890;2024-02-16T03:38:41;5.90;99.90
42085;DHT22;27746;52.228;20.890;2024-02-16T03:41:12;5.90;99.90
42085;DHT22;27746;52.228;20.890;2024-02-16T03:43:39;5.80;99.90
42085;DHT22;27746;52.228;20.890;2024-02-16T03:46:06;5.80;99.90
42085;DHT22;27746;52.228;20.890;2024-02-16T03:48:35;5.70;99.90
42085;DHT22;27746;52.228;20.890;2024-02-16T03:51:02;5.80;99.90
42085;DHT22;27746;52.228;20.890;2024-02-16T03:53:29;5.70;99.90
42085;DHT22;27746;52.228;20.890;2024-02-16T03:55:56;5.70;99.90
42085;DHT22;27746;52.228;20.890;2024-02-16T03:58:23;5.70;99.90
42085;DHT22;27746;52.228;20.890;2024-02-16T04:00:50;5.70;99.90
42085;DHT22;27746;52.228;20.890;2024-02-16T04:03:18;5.60;99.90
42085;DHT22;27746;52.228;20.890;2024-02-16T04:05:47;5.70;99.90
42085;DHT22;27746;52.228;20.890;2024-02-16T04:08:14;5.60;99.90
42085;DHT22;27746;52.228;20.890;2024-02-16T04:10:41;5.60;99.90
42085;DHT22;27746;52.228;20.890;2024-02-16T04:13:08;5.60;99.90
42085;DHT22;27746;52.228;20.890;2024-02-16T04:15:35;5.50;99.90
42085;DHT22;27746;52.228;20.890;2024-02-16T04:18:01;5.50;99.90
42085;DHT22;27746;52.228;20.890;2024-02-16T04:20:28;5.50;99.90
42085;DHT22;27746;52.228;20.890;2024-02-16T04:22:56;5.50;99.90
42085;DHT22;27746;52.228;20.890;2024-02-16T04:25:23;5.50;99.90
42085;DHT22;27746;52.228;20.890;2024-02-16T04:27:50;5.40;99.90
42085;DHT22;27746;52.228;20.890;2024-02-16T04:30:17;5.40;99.90
42085;DHT22;27746;52.228;20.890;2024-02-16T04:32:44;5.40;99.90
42085;DHT22;27746;52.228;20.890;2024-02-16T04:35:11;5.40;99.90
42085;DHT22;27746;52.228;20.890;2024-02-16T04:37:39;5.40;99.90
42085;DHT22;27746;52.228;20.890;2024-02-16T04:40:08;5.30;99.90
42085;DHT22;27746;52.228;20.890;2024-02-16T04:42:37;5.30;99.90
42085;DHT22;27746;52.228;20.890;2024-02-16T04:45:06;5.20;99.90
42085;DHT22;27746;52.228;20.890;2024-02-16T04:47:34;5.30;99.90
42085;DHT22;27746;52.228;20.890;2024-02-16T04:50:00;5.20;99.90
42085;DHT22;27746;52.228;20.890;2024-02-16T04:52:28;5.20;99.90
42085;DHT22;27746;52.228;20.890;2024-02-16T04:54:55;5.20;99.90
42085;DHT22;27746;52.228;20.890;2024-02-16T04:57:23;5.20;99.90
42085;DHT22;27746;52.228;20.890;2024-02-16T04:59:50;5.10;99.90
42085;DHT22;27746;52.228;20.890;2024-02-16T05:02:17;5.10;99.90
42085;DHT22;27746;52.228;20.890;2024-02-16T05:04:44;5.00;99.90
42085;DHT22;27746;52.228;20.890;2024-02-16T05:07:10;5.10;99.90
42085;DHT22;27746;52.228;20.890;2024-02-16T05:09:37;5.10;99.90
42085;DHT22;27746;52.228;20.890;2024-02-16T05:12:05;5.00;99.90
42085;DHT22;27746;52.228;20.890;2024-02-16T05:14:35;5.00;99.90
42085;DHT22;27746;52.228;20.890;2024-02-16T05:17:02;5.00;99.90
42085;DHT22;27746;52.228;20.890;2024-02-16T05:19:32;5.00;99.90
42085;DHT22;27746;52.228;20.890;2024-02-16T05:21:59;5.00;99.90
42085;DHT22;27746;52.228;20.890;2024-02-16T05:24:26;4.90;99.90
42085;DHT22;27746;52.228;20.890;2024-02-16T05:26:52;4.90;99.90
42085;DHT22;27746;52.228;20.890;2024-02-16T05:29:21;4.90;99.90
42085;DHT22;27746;52.228;20.890;2024-02-16T05:31:52;4.90;99.90
42085;DHT22;27746;52.228;20.890;2024-02-16T05:34:19;4.90;99.90
42085;DHT22;27746;52.228;20.890;2024-02-16T05:36:46;4.90;99.90
42085;DHT22;27746;52.228;20.890;2024-02-16T05:39:13;4.90;99.90
42085;DHT22;27746;52.228;20.890;2024-02-16T05:41:52;4.80;99.90
42085;DHT22;27746;52.228;20.890;2024-02-16T05:44:20;4.80;99.90
42085;DHT22;27746;52.228;20.890;2024-02-16T05:46:46;4.80;99.90
42085;DHT22;27746;52.228;20.890;2024-02-16T05:49:15;4.80;99.90
42085;DHT22;27746;52.228;20.890;2024-02-16T05:51:42;4.80;99.90
42085;DHT22;27746;52.228;20.890;2024-02-16T05:54:26;4.80;99.90
42085;DHT22;27746;52.228;20.890;2024-02-16T05:56:53;4.80;99.90
42085;DHT22;27746;52.228;20.890;2024-02-16T05:59:20;4.80;99.90
42085;DHT22;27746;52.228;20.890;2024-02-16T06:01:47;4.70;99.90
42085;DHT22;27746;52.228;20.890;2024-02-16T06:04:16;4.80;99.90
42085;DHT22;27746;52.228;20.890;2024-02-16T06:06:43;4.70;99.90
42085;DHT22;27746;52.228;20.890;2024-02-16T06:09:09;4.70;99.90
42085;DHT22;27746;52.228;20.890;2024-02-16T06:11:37;4.80;99.90
42085;DHT22;27746;52.228;20.890;2024-02-16T06:14:04;4.80;99.90
42085;DHT22;27746;52.228;20.890;2024-02-16T06:16:31;4.80;99.90
42085;DHT22;27746;52.228;20.890;2024-02-16T06:19:00;4.80;99.90
42085;DHT22;27746;52.228;20.890;2024-02-16T06:21:29;4.90;99.90
42085;DHT22;27746;52.228;20.890;2024-02-16T06:23:56;4.90;99.90
42085;DHT22;27746;52.228;20.890;2024-02-16T06:26:23;5.00;99.90
42085;DHT22;27746;52.228;20.890;2024-02-16T06:28:50;4.90;99.90
42085;DHT22;27746;52.228;20.890;2024-02-16T06:31:16;5.00;99.90
42085;DHT22;27746;52.228;20.890;2024-02-16T06:33:43;5.00;99.90
42085;DHT22;27746;52.228;20.890;2024-02-16T06:36:10;5.10;99.90
42085;DHT22;27746;52.228;20.890;2024-02-16T06:38:38;5.10;99.90
42085;DHT22;27746;52.228;20.890;2024-02-16T06:41:05;5.20;99.90
42085;DHT22;27746;52.228;20.890;2024-02-16T06:43:33;5.30;99.90
42085;DHT22;27746;52.228;20.890;2024-02-16T06:46:00;5.40;99.90
42085;DHT22;27746;52.228;20.890;2024-02-16T06:48:27;5.50;99.90
42085;DHT22;27746;52.228;20.890;2024-02-16T06:50:53;5.60;99.90
42085;DHT22;27746;52.228;20.890;2024-02-16T06:53:20;5.60;99.90
42085;DHT22;27746;52.228;20.890;2024-02-16T06:55:48;5.70;99.90
42085;DHT22;27746;52.228;20.890;2024-02-16T06:58:16;5.80;99.90
42085;DHT22;27746;52.228;20.890;2024-02-16T07:00:43;5.90;99.90
42085;DHT22;27746;52.228;20.890;2024-02-16T07:03:10;6.00;99.90
42085;DHT22;27746;52.228;20.890;2024-02-16T07:05:37;6.10;99.90
42085;DHT22;27746;52.228;20.890;2024-02-16T07:08:06;6.10;99.90
42085;DHT22;27746;52.228;20.890;2024-02-16T07:10:33;6.10;99.90
42085;DHT22;27746;52.228;20.890;2024-02-16T07:13:01;6.20;99.90
42085;DHT22;27746;52.228;20.890;2024-02-16T07:15:29;6.30;99.90
42085;DHT22;27746;52.228;20.890;2024-02-16T07:17:56;6.40;99.90
42085;DHT22;27746;52.228;20.890;2024-02-16T07:20:23;6.50;99.90
42085;DHT22;27746;52.228;20.890;2024-02-16T07:22:50;6.60;99.90
42085;DHT22;27746;52.228;20.890;2024-02-16T07:25:18;6.60;99.90
42085;DHT22;27746;52.228;20.890;2024-02-16T07:27:45;6.80;99.90
42085;DHT22;27746;52.228;20.890;2024-02-16T07:30:13;6.80;99.90
42085;DHT22;27746;52.228;20.890;2024-02-16T07:32:40;6.90;99.90
42085;DHT22;27746;52.228;20.890;2024-02-16T07:35:09;7.00;99.90
42085;DHT22;27746;52.228;20.890;2024-02-16T07:37:36;7.00;99.90
42085;DHT22;27746;52.228;20.890;2024-02-16T07:40:04;7.10;99.90
42085;DHT22;27746;52.228;20.890;2024-02-16T07:42:38;7.20;99.90
42085;DHT22;27746;52.228;20.890;2024-02-16T07:45:05;7.30;99.80
42085;DHT22;27746;52.228;20.890;2024-02-16T07:47:33;7.50;99.50
42085;DHT22;27746;52.228;20.890;2024-02-16T07:50:00;7.60;99.40
42085;DHT22;27746;52.228;20.890;2024-02-16T07:52:28;7.70;99.00
42085;DHT22;27746;52.228;20.890;2024-02-16T07:54:55;7.80;98.70
42085;DHT22;27746;52.228;20.890;2024-02-16T07:57:22;7.90;98.40
42085;DHT22;27746;52.228;20.890;2024-02-16T07:59:49;8.00;98.40
42085;DHT22;27746;52.228;20.890;2024-02-16T08:02:16;8.20;98.00
42085;DHT22;27746;52.228;20.890;2024-02-16T08:04:46;8.20;97.90
42085;DHT22;27746;52.228;20.890;2024-02-16T08:07:13;8.40;97.70
42085;DHT22;27746;52.228;20.890;2024-02-16T08:09:43;8.50;97.30
42085;DHT22;27746;52.228;20.890;2024-02-16T08:12:10;8.50;97.00
42085;DHT22;27746;52.228;20.890;2024-02-16T08:14:38;8.60;97.10
42085;DHT22;27746;52.228;20.890;2024-02-16T08:17:05;8.80;97.20
42085;DHT22;27746;52.228;20.890;2024-02-16T08:19:33;9.10;96.60
42085;DHT22;27746;52.228;20.890;2024-02-16T08:22:02;9.10;95.90
42085;DHT22;27746;52.228;20.890;2024-02-16T08:24:31;9.30;96.20
42085;DHT22;27746;52.228;20.890;2024-02-16T08:26:58;9.50;95.60
42085;DHT22;27746;52.228;20.890;2024-02-16T08:29:27;9.70;95.50
42085;DHT22;27746;52.228;20.890;2024-02-16T08:31:54;9.80;95.10
42085;DHT22;27746;52.228;20.890;2024-02-16T08:34:21;10.00;94.60
42085;DHT22;27746;52.228;20.890;2024-02-16T08:36:52;9.90;94.10
42085;DHT22;27746;52.228;20.890;2024-02-16T08:39:20;9.90;94.10
42085;DHT22;27746;52.228;20.890;2024-02-16T08:41:50;10.10;94.10
42085;DHT22;27746;52.228;20.890;2024-02-16T08:44:17;10.40;94.30
42085;DHT22;27746;52.228;20.890;2024-02-16T08:46:44;10.60;93.70
42085;DHT22;27746;52.228;20.890;2024-02-16T08:49:14;10.70;93.10
42085;DHT22;27746;52.228;20.890;2024-02-16T08:51:41;10.90;92.90
42085;DHT22;27746;52.228;20.890;2024-02-16T08:54:09;11.00;92.60
42085;DHT22;27746;52.228;20.890;2024-02-16T08:56:37;11.10;92.60
42085;DHT22;27746;52.228;20.890;2024-02-16T08:59:05;11.30;92.10
42085;DHT22;27746;52.228;20.890;2024-02-16T09:01:32;11.40;91.80
42085;DHT22;27746;52.228;20.890;2024-02-16T09:03:59;11.50;91.80
42085;DHT22;27746;52.228;20.890;2024-02-16T09:06:26;11.70;91.40
42085;DHT22;27746;52.228;20.890;2024-02-16T09:08:54;11.90;91.10
42085;DHT22;27746;52.228;20.890;2024-02-16T09:11:21;12.20;90.60
42085;DHT22;27746;52.228;20.890;2024-02-16T09:13:50;12.50;90.50
42085;DHT22;27746;52.228;20.890;2024-02-16T09:16:17;12.60;89.20
42085;DHT22;27746;52.228;20.890;2024-02-16T09:18:44;12.80;89.80
42085;DHT22;27746;52.228;20.890;2024-02-16T09:21:11;13.10;89.50
42085;DHT22;27746;52.228;20.890;2024-02-16T09:23:37;13.30;87.40
42085;DHT22;27746;52.228;20.890;2024-02-16T09:26:04;13.60;86.30
42085;DHT22;27746;52.228;20.890;2024-02-16T09:28:31;13.80;85.40
42085;DHT22;27746;52.228;20.890;2024-02-16T09:30:59;14.60;83.20
42085;DHT22;27746;52.228;20.890;2024-02-16T09:33:26;15.30;81.20
42085;DHT22;27746;52.228;20.890;2024-02-16T09:35:53;16.10;79.10
42085;DHT22;27746;52.228;20.890;2024-02-16T09:38:22;16.70;75.20
42085;DHT22;27746;52.228;20.890;2024-02-16T09:40:50;17.50;74.70
42085;DHT22;27746;52.228;20.890;2024-02-16T09:43:27;18.30;72.50
42085;DHT22;27746;52.228;20.890;2024-02-16T09:45:55;19.50;68.90
42085;DHT22;27746;52.228;20.890;2024-02-16T09:48:25;20.30;65.70
42085;DHT22;27746;52.228;20.890;2024-02-16T09:50:53;21.20;64.20
42085;DHT22;27746;52.228;20.890;2024-02-16T09:53:21;22.30;61.60
42085;DHT22;27746;52.228;20.890;2024-02-16T09:55:50;23.00;59.20
42085;DHT22;27746;52.228;20.890;2024-02-16T09:58:18;22.90;56.60
42085;DHT22;27746;52.228;20.890;2024-02-16T10:00:49;22.10;57.30
42085;DHT22;27746;52.228;20.890;2024-02-16T10:03:25;22.90;57.20
42085;DHT22;27746;52.228;20.890;2024-02-16T10:05:52;23.40;55.70
42085;DHT22;27746;52.228;20.890;2024-02-16T10:08:19;23.50;55.90
42085;DHT22;27746;52.228;20.890;2024-02-16T10:10:46;24.10;54.40
42085;DHT22;27746;52.228;20.890;2024-02-16T10:13:15;24.60;53.80
42085;DHT22;27746;52.228;20.890;2024-02-16T10:15:42;24.30;52.80
42085;DHT22;27746;52.228;20.890;2024-02-16T10:18:10;24.50;52.80
42085;DHT22;27746;52.228;20.890;2024-02-16T10:20:38;24.60;51.70
42085;DHT22;27746;52.228;20.890;2024-02-16T10:23:06;24.50;52.20
42085;DHT22;27746;52.228;20.890;2024-02-16T10:25:33;24.20;50.80
42085;DHT22;27746;52.228;20.890;2024-02-16T10:28:04;25.00;51.60
42085;DHT22;27746;52.228;20.890;2024-02-16T10:30:35;25.40;51.00
42085;DHT22;27746;52.228;20.890;2024-02-16T10:33:04;25.90;50.70
42085;DHT22;27746;52.228;20.890;2024-02-16T10:35:32;26.50;50.30
42085;DHT22;27746;52.228;20.890;2024-02-16T10:38:02;27.00;49.10
42085;DHT22;27746;52.228;20.890;2024-02-16T10:40:32;27.80;49.20
42085;DHT22;27746;52.228;20.890;2024-02-16T10:43:03;27.70;48.50
42085;DHT22;27746;52.228;20.890;2024-02-16T10:45:33;27.20;48.60
42085;DHT22;27746;52.228;20.890;2024-02-16T10:48:01;27.00;48.80
42085;DHT22;27746;52.228;20.890;2024-02-16T10:50:28;27.30;48.10
42085;DHT22;27746;52.228;20.890;2024-02-16T10:52:57;27.50;48.60
42085;DHT22;27746;52.228;20.890;2024-02-16T10:55:27;27.90;47.90
42085;DHT22;27746;52.228;20.890;2024-02-16T10:57:56;27.90;48.00
42085;DHT22;27746;52.228;20.890;2024-02-16T11:00:24;28.20;47.10
42085;DHT22;27746;52.228;20.890;2024-02-16T11:02:53;27.50;47.90
42085;DHT22;27746;52.228;20.890;2024-02-16T11:05:32;27.70;47.90
42085;DHT22;27746;52.228;20.890;2024-02-16T11:08:00;27.20;48.10
42085;DHT22;27746;52.228;20.890;2024-02-16T11:10:29;27.50;48.60
42085;DHT22;27746;52.228;20.890;2024-02-16T11:13:01;27.40;48.20
42085;DHT22;27746;52.228;20.890;2024-02-16T11:15:30;28.10;47.80
42085;DHT22;27746;52.228;20.890;2024-02-16T11:18:00;28.10;48.10
42085;DHT22;27746;52.228;20.890;2024-02-16T11:20:27;28.30;47.20
42085;DHT22;27746;52.228;20.890;2024-02-16T11:23:04;28.10;47.60
42085;DHT22;27746;52.228;20.890;2024-02-16T11:25:33;28.80;47.70
42085;DHT22;27746;52.228;20.890;2024-02-16T11:28:02;28.90;47.10
42085;DHT22;27746;52.228;20.890;2024-02-16T11:30:32;29.20;47.30
42085;DHT22;27746;52.228;20.890;2024-02-16T11:33:01;28.30;46.10
42085;DHT22;27746;52.228;20.890;2024-02-16T11:35:28;29.10;46.90
42085;DHT22;27746;52.228;20.890;2024-02-16T11:37:55;28.40;46.80
42085;DHT22;27746;52.228;20.890;2024-02-16T11:40:23;28.30;47.20
42085;DHT22;27746;52.228;20.890;2024-02-16T11:42:58;28.10;47.10
42085;DHT22;27746;52.228;20.890;2024-02-16T11:45:25;28.30;47.30
42085;DHT22;27746;52.228;20.890;2024-02-16T11:48:03;28.00;47.80
42085;DHT22;27746;52.228;20.890;2024-02-16T11:50:30;28.40;47.60
42085;DHT22;27746;52.228;20.890;2024-02-16T11:52:57;28.20;47.50
42085;DHT22;27746;52.228;20.890;2024-02-16T11:55:24;28.00;47.20
42085;DHT22;27746;52.228;20.890;2024-02-16T11:57:51;27.80;47.20
42085;DHT22;27746;52.228;20.890;2024-02-16T12:00:21;27.10;47.80
42085;DHT22;27746;52.228;20.890;2024-02-16T12:02:59;26.50;48.90
42085;DHT22;27746;52.228;20.890;2024-02-16T12:05:27;26.90;49.20
42085;DHT22;27746;52.228;20.890;2024-02-16T12:07:57;27.50;48.50
42085;DHT22;27746;52.228;20.890;2024-02-16T12:10:25;27.40;48.20
42085;DHT22;27746;52.228;20.890;2024-02-16T12:12:52;27.90;48.40
42085;DHT22;27746;52.228;20.890;2024-02-16T12:15:21;27.60;47.80
42085;DHT22;27746;52.228;20.890;2024-02-16T12:17:58;27.40;48.40
42085;DHT22;27746;52.228;20.890;2024-02-16T12:20:27;26.40;49.20
42085;DHT22;27746;52.228;20.890;2024-02-16T12:22:56;27.20;49.20
42085;DHT22;27746;52.228;20.890;2024-02-16T12:25:24;27.50;49.20
42085;DHT22;27746;52.228;20.890;2024-02-16T12:27:51;27.80;48.60
42085;DHT22;27746;52.228;20.890;2024-02-16T12:30:19;27.10;49.20
42085;DHT22;27746;52.228;20.890;2024-02-16T12:32:47;26.80;49.40
42085;DHT22;27746;52.228;20.890;2024-02-16T12:35:14;26.60;50.30
42085;DHT22;27746;52.228;20.890;2024-02-16T12:37:41;26.30;49.90
42085;DHT22;27746;52.228;20.890;2024-02-16T12:40:08;25.90;50.60
42085;DHT22;27746;52.228;20.890;2024-02-16T12:42:35;25.30;51.60
42085;DHT22;27746;52.228;20.890;2024-02-16T12:45:04;25.60;51.60
42085;DHT22;27746;52.228;20.890;2024-02-16T12:47:31;26.00;51.20
42085;DHT22;27746;52.228;20.890;2024-02-16T12:49:59;25.80;51.00
42085;DHT22;27746;52.228;20.890;2024-02-16T12:52:26;26.00;51.20
42085;DHT22;27746;52.228;20.890;2024-02-16T12:54:56;25.60;51.70
42085;DHT22;27746;52.228;20.890;2024-02-16T12:57:24;26.00;51.90
42085;DHT22;27746;52.228;20.890;2024-02-16T12:59:51;26.10;51.70
42085;DHT22;27746;52.228;20.890;2024-02-16T13:02:18;26.60;51.00
42085;DHT22;27746;52.228;20.890;2024-02-16T13:04:45;25.50;50.70
42085;DHT22;27746;52.228;20.890;2024-02-16T13:07:13;25.70;51.60
42085;DHT22;27746;52.228;20.890;2024-02-16T13:09:40;25.70;51.30
42085;DHT22;27746;52.228;20.890;2024-02-16T13:12:07;24.80;51.60
42085;DHT22;27746;52.228;20.890;2024-02-16T13:14:34;24.90;52.60
42085;DHT22;27746;52.228;20.890;2024-02-16T13:17:02;24.90;52.00
42085;DHT22;27746;52.228;20.890;2024-02-16T13:19:29;24.90;52.00
42085;DHT22;27746;52.228;20.890;2024-02-16T13:21:57;25.60;51.70
42085;DHT22;27746;52.228;20.890;2024-02-16T13:24:25;25.30;51.50
42085;DHT22;27746;52.228;20.890;2024-02-16T13:26:52;25.40;51.70
42085;DHT22;27746;52.228;20.890;2024-02-16T13:29:19;25.10;52.00
42085;DHT22;27746;52.228;20.890;2024-02-16T13:31:46;25.70;51.40
42085;DHT22;27746;52.228;20.890;2024-02-16T13:34:13;25.20;51.20
42085;DHT22;27746;52.228;20.890;2024-02-16T13:36:40;25.20;51.30
42085;DHT22;27746;52.228;20.890;2024-02-16T13:39:07;25.60;51.60
42085;DHT22;27746;52.228;20.890;2024-02-16T13:41:35;25.60;51.00
42085;DHT22;27746;52.228;20.890;2024-02-16T13:44:02;26.10;50.90
42085;DHT22;27746;52.228;20.890;2024-02-16T13:46:29;25.40;50.50
42085;DHT22;27746;52.228;20.890;2024-02-16T13:48:56;23.70;52.10
42085;DHT22;27746;52.228;20.890;2024-02-16T13:51:24;23.60;53.60
42085;DHT22;27746;52.228;20.890;2024-02-16T13:53:51;23.50;53.50
42085;DHT22;27746;52.228;20.890;2024-02-16T13:56:18;23.50;53.80
42085;DHT22;27746;52.228;20.890;2024-02-16T13:58:46;22.90;54.10
42085;DHT22;27746;52.228;20.890;2024-02-16T14:01:14;21.70;55.90
42085;DHT22;27746;52.228;20.890;2024-02-16T14:03:41;21.00;57.60
42085;DHT22;27746;52.228;20.890;2024-02-16T14:06:08;19.90;59.60
42085;DHT22;27746;52.228;20.890;2024-02-16T14:08:37;18.60;62.90
42085;DHT22;27746;52.228;20.890;2024-02-16T14:11:04;17.70;64.70
42085;DHT22;27746;52.228;20.890;2024-02-16T14:13:31;17.30;66.10
42085;DHT22;27746;52.228;20.890;2024-02-16T14:15:59;16.70;67.80
42085;DHT22;27746;52.228;20.890;2024-02-16T14:18:27;16.30;69.20
42085;DHT22;27746;52.228;20.890;2024-02-16T14:20:54;15.80;70.50
42085;DHT22;27746;52.228;20.890;2024-02-16T14:23:21;15.50;71.30
42085;DHT22;27746;52.228;20.890;2024-02-16T14:25:47;15.20;72.30
42085;DHT22;27746;52.228;20.890;2024-02-16T14:28:14;15.00;73.40
42085;DHT22;27746;52.228;20.890;2024-02-16T14:30:41;14.80;73.90
42085;DHT22;27746;52.228;20.890;2024-02-16T14:33:09;14.50;74.60
42085;DHT22;27746;52.228;20.890;2024-02-16T14:35:37;14.40;75.40
42085;DHT22;27746;52.228;20.890;2024-02-16T14:38:04;14.20;75.80
42085;DHT22;27746;52.228;20.890;2024-02-16T14:40:31;14.10;76.00
42085;DHT22;27746;52.228;20.890;2024-02-16T14:42:58;14.00;76.10
42085;DHT22;27746;52.228;20.890;2024-02-16T14:45:25;13.80;76.30
42085;DHT22;27746;52.228;20.890;2024-02-16T14:50:22;13.70;77.90
42085;DHT22;27746;52.228;20.890;2024-02-16T14:52:55;13.50;77.50
42085;DHT22;27746;52.228;20.890;2024-02-16T14:55:22;13.40;78.00
42085;DHT22;27746;52.228;20.890;2024-02-16T14:57:50;13.20;78.40
42085;DHT22;27746;52.228;20.890;2024-02-16T15:00:17;13.20;78.70
42085;DHT22;27746;52.228;20.890;2024-02-16T15:02:47;13.00;79.00
42085;DHT22;27746;52.228;20.890;2024-02-16T15:05:14;13.00;79.20
42085;DHT22;27746;52.228;20.890;2024-02-16T15:07:42;12.90;79.50
42085;DHT22;27746;52.228;20.890;2024-02-16T15:10:10;12.80;79.80
42085;DHT22;27746;52.228;20.890;2024-02-16T15:12:37;12.70;79.80
42085;DHT22;27746;52.228;20.890;2024-02-16T15:15:06;12.70;79.90
42085;DHT22;27746;52.228;20.890;2024-02-16T15:17:33;12.60;80.40
42085;DHT22;27746;52.228;20.890;2024-02-16T15:20:00;12.50;80.20
42085;DHT22;27746;52.228;20.890;2024-02-16T15:22:28;12.50;81.20
42085;DHT22;27746;52.228;20.890;2024-02-16T15:24:57;12.40;81.10
42085;DHT22;27746;52.228;20.890;2024-02-16T15:27:24;12.30;81.20
42085;DHT22;27746;52.228;20.890;2024-02-16T15:29:51;12.30;81.40